sensor_id;sensor_type;location;lat;lon;timestamp;temperature;humidity
17415;DHT22;8825;48.086;16.426;2023-05-16T00:01:40;14.00;73.00
17415;DHT22;8825;48.086;16.426;2023-05-16T00:04:07;14.00;72.80
17415;DHT22;8825;48.086;16.426;2023-05-16T00:06:35;14.00;72.70
17415;DHT22;8825;48.086;16.426;2023-05-16T00:09:02;13.90;72.70
17415;DHT22;8825;48.086;16.426;2023-05-16T00:11:30;13.90;72.70
17415;DHT22;8825;48.086;16.426;2023-05-16T00:13:58;13.90;72.70
17415;DHT22;8825;48.086;16.426;2023-05-16T00:16:27;13.90;72.80
17415;DHT22;8825;48.086;16.426;2023-05-16T00:18:56;13.90;72.80
17415;DHT22;8825;48.086;16.426;2023-05-16T00:21:25;13.90;72.80
17415;DHT22;8825;48.086;16.426;2023-05-16T00:23:52;13.80;72.90
17415;DHT22;8825;48.086;16.426;2023-05-16T00:26:20;13.80;73.00
17415;DHT22;8825;48.086;16.426;2023-05-16T00:28:48;13.80;73.10
17415;DHT22;8825;48.086;16.426;2023-05-16T00:31:15;13.80;73.30
17415;DHT22;8825;48.086;16.426;2023-05-16T00:33:42;13.80;73.20
17415;DHT22;8825;48.086;16.426;2023-05-16T00:36:10;13.80;73.30
17415;DHT22;8825;48.086;16.426;2023-05-16T00:38:38;13.80;73.30
17415;DHT22;8825;48.086;16.426;2023-05-16T00:41:05;13.80;73.40
17415;DHT22;8825;48.086;16.426;2023-05-16T00:43:33;13.80;73.50
17415;DHT22;8825;48.086;16.426;2023-05-16T00:46:00;13.80;73.50
17415;DHT22;8825;48.086;16.426;2023-05-16T00:48:28;13.80;73.50
17415;DHT22;8825;48.086;16.426;2023-05-16T00:50:55;13.80;73.40
17415;DHT22;8825;48.086;16.426;2023-05-16T00:53:24;13.80;73.40
17415;DHT22;8825;48.086;16.426;2023-05-16T00:55:51;13.90;73.40
17415;DHT22;8825;48.086;16.426;2023-05-16T00:58:21;13.90;73.40
17415;DHT22;8825;48.086;16.426;2023-05-16T01:00:49;13.90;73.60
17415;DHT22;8825;48.086;16.426;2023-05-16T01:03:17;13.90;73.80
17415;DHT22;8825;48.086;16.426;2023-05-16T01:05:45;13.90;73.80
17415;DHT22;8825;48.086;16.426;2023-05-16T01:08:12;13.90;73.80
17415;DHT22;8825;48.086;16.426;2023-05-16T01:13:34;14.00;73.90
17415;DHT22;8825;48.086;16.426;2023-05-16T01:16:10;14.00;73.90
17415;DHT22;8825;48.086;16.426;2023-05-16T01:18:58;14.00;73.90
17415;DHT22;8825;48.086;16.426;2023-05-16T01:27:02;14.00;74.20
17415;DHT22;8825;48.086;16.426;2023-05-16T01:29:31;14.00;74.20
17415;DHT22;8825;48.086;16.426;2023-05-16T01:31:59;14.00;74.30
17415;DHT22;8825;48.086;16.426;2023-05-16T01:34:26;14.00;74.20
17415;DHT22;8825;48.086;16.426;2023-05-16T01:36:59;14.10;74.10
17415;DHT22;8825;48.086;16.426;2023-05-16T01:39:32;14.10;74.00
17415;DHT22;8825;48.086;16.426;2023-05-16T01:42:11;14.20;73.80
17415;DHT22;8825;48.086;16.426;2023-05-16T01:44:44;14.20;73.70
17415;DHT22;8825;48.086;16.426;2023-05-16T01:47:13;14.20;73.50
17415;DHT22;8825;48.086;16.426;2023-05-16T01:52:53;14.30;73.30
17415;DHT22;8825;48.086;16.426;2023-05-16T01:55:35;14.30;73.20
17415;DHT22;8825;48.086;16.426;2023-05-16T01:58:02;14.30;72.90
17415;DHT22;8825;48.086;16.426;2023-05-16T02:00:31;14.40;72.90
17415;DHT22;8825;48.086;16.426;2023-05-16T02:02:59;14.40;72.80
17415;DHT22;8825;48.086;16.426;2023-05-16T02:05:26;14.50;72.70
17415;DHT22;8825;48.086;16.426;2023-05-16T02:07:54;14.50;72.50
17415;DHT22;8825;48.086;16.426;2023-05-16T02:10:22;14.50;72.20
17415;DHT22;8825;48.086;16.426;2023-05-16T02:12:50;14.60;72.20
17415;DHT22;8825;48.086;16.426;2023-05-16T02:15:18;14.60;72.00
17415;DHT22;8825;48.086;16.426;2023-05-16T02:17:46;14.60;71.90
17415;DHT22;8825;48.086;16.426;2023-05-16T02:20:14;14.70;71.80
17415;DHT22;8825;48.086;16.426;2023-05-16T02:22:42;14.70;71.70
17415;DHT22;8825;48.086;16.426;2023-05-16T02:25:12;14.80;71.60
17415;DHT22;8825;48.086;16.426;2023-05-16T02:27:41;14.80;71.90
17415;DHT22;8825;48.086;16.426;2023-05-16T02:30:12;15.00;72.10
17415;DHT22;8825;48.086;16.426;2023-05-16T02:32:39;15.00;71.70
17415;DHT22;8825;48.086;16.426;2023-05-16T02:35:09;15.10;71.50
17415;DHT22;8825;48.086;16.426;2023-05-16T02:37:37;15.10;71.30
17415;DHT22;8825;48.086;16.426;2023-05-16T02:40:05;15.10;71.00
17415;DHT22;8825;48.086;16.426;2023-05-16T02:42:33;15.10;70.90
17415;DHT22;8825;48.086;16.426;2023-05-16T02:45:01;15.10;70.80
17415;DHT22;8825;48.086;16.426;2023-05-16T02:47:28;15.10;70.90
17415;DHT22;8825;48.086;16.426;2023-05-16T02:49:56;15.20;70.90
17415;DHT22;8825;48.086;16.426;2023-05-16T02:52:23;15.20;71.40
17415;DHT22;8825;48.086;16.426;2023-05-16T02:54:51;15.20;70.40
17415;DHT22;8825;48.086;16.426;2023-05-16T02:57:19;15.20;70.20
17415;DHT22;8825;48.086;16.426;2023-05-16T02:59:46;15.10;70.00
17415;DHT22;8825;48.086;16.426;2023-05-16T03:02:14;15.20;69.90
17415;DHT22;8825;48.086;16.426;2023-05-16T03:04:41;15.10;69.70
17415;DHT22;8825;48.086;16.426;2023-05-16T03:07:09;15.10;69.70
17415;DHT22;8825;48.086;16.426;2023-05-16T03:09:36;15.20;69.70
17415;DHT22;8825;48.086;16.426;2023-05-16T03:12:04;15.20;69.50
17415;DHT22;8825;48.086;16.426;2023-05-16T03:14:32;15.20;69.40
17415;DHT22;8825;48.086;16.426;2023-05-16T03:16:59;15.20;69.30
17415;DHT22;8825;48.086;16.426;2023-05-16T03:19:27;15.20;69.20
17415;DHT22;8825;48.086;16.426;2023-05-16T03:21:54;15.20;69.10
17415;DHT22;8825;48.086;16.426;2023-05-16T03:24:23;15.10;69.00
17415;DHT22;8825;48.086;16.426;2023-05-16T03:26:50;15.10;68.90
17415;DHT22;8825;48.086;16.426;2023-05-16T03:29:18;15.10;68.90
17415;DHT22;8825;48.086;16.426;2023-05-16T03:31:45;15.10;68.90
17415;DHT22;8825;48.086;16.426;2023-05-16T03:34:13;15.10;69.00
17415;DHT22;8825;48.086;16.426;2023-05-16T03:36:41;15.10;69.20
17415;DHT22;8825;48.086;16.426;2023-05-16T03:39:08;15.10;69.20
17415;DHT22;8825;48.086;16.426;2023-05-16T03:41:36;15.10;69.20
17415;DHT22;8825;48.086;16.426;2023-05-16T03:44:04;15.10;69.20
17415;DHT22;8825;48.086;16.426;2023-05-16T03:46:31;15.10;69.10
17415;DHT22;8825;48.086;16.426;2023-05-16T03:48:59;15.10;69.10
17415;DHT22;8825;48.086;16.426;2023-05-16T03:51:26;15.10;69.10
17415;DHT22;8825;48.086;16.426;2023-05-16T03:53:55;15.00;68.90
17415;DHT22;8825;48.086;16.426;2023-05-16T03:56:23;15.10;69.00
17415;DHT22;8825;48.086;16.426;2023-05-16T03:58:51;15.00;69.00
17415;DHT22;8825;48.086;16.426;2023-05-16T04:01:19;15.00;68.90
17415;DHT22;8825;48.086;16.426;2023-05-16T04:03:46;15.10;69.00
17415;DHT22;8825;48.086;16.426;2023-05-16T04:06:14;15.00;68.90
17415;DHT22;8825;48.086;16.426;2023-05-16T04:08:41;15.00;68.90
17415;DHT22;8825;48.086;16.426;2023-05-16T04:11:10;15.00;69.00
17415;DHT22;8825;48.086;16.426;2023-05-16T04:13:37;15.00;69.90
17415;DHT22;8825;48.086;16.426;2023-05-16T04:16:05;15.00;69.10
17415;DHT22;8825;48.086;16.426;2023-05-16T04:18:33;15.00;69.10
17415;DHT22;8825;48.086;16.426;2023-05-16T04:21:00;15.00;69.20
17415;DHT22;8825;48.086;16.426;2023-05-16T04:23:28;15.10;69.20
17415;DHT22;8825;48.086;16.426;2023-05-16T04:25:55;15.10;69.10
17415;DHT22;8825;48.086;16.426;2023-05-16T04:28:24;15.10;69.10
17415;DHT22;8825;48.086;16.426;2023-05-16T04:30:51;15.10;69.10
17415;DHT22;8825;48.086;16.426;2023-05-16T04:33:19;15.10;69.10
17415;DHT22;8825;48.086;16.426;2023-05-16T04:35:47;15.10;69.10
17415;DHT22;8825;48.086;16.426;2023-05-16T04:38:15;15.20;69.20
17415;DHT22;8825;48.086;16.426;2023-05-16T04:40:43;15.20;69.00
17415;DHT22;8825;48.086;16.426;2023-05-16T04:43:11;15.20;68.90
17415;DHT22;8825;48.086;16.426;2023-05-16T04:45:38;15.20;68.90
17415;DHT22;8825;48.086;16.426;2023-05-16T04:48:07;15.30;68.90
17415;DHT22;8825;48.086;16.426;2023-05-16T04:50:35;15.40;68.90
17415;DHT22;8825;48.086;16.426;2023-05-16T04:53:02;15.40;68.80
17415;DHT22;8825;48.086;16.426;2023-05-16T04:55:30;15.50;68.80
17415;DHT22;8825;48.086;16.426;2023-05-16T04:57:57;15.50;68.80
17415;DHT22;8825;48.086;16.426;2023-05-16T05:00:25;15.50;68.70
17415;DHT22;8825;48.086;16.426;2023-05-16T05:02:52;15.60;68.60
17415;DHT22;8825;48.086;16.426;2023-05-16T05:05:20;15.60;68.50
17415;DHT22;8825;48.086;16.426;2023-05-16T05:07:47;15.60;68.40
17415;DHT22;8825;48.086;16.426;2023-05-16T05:10:15;15.60;68.40
17415;DHT22;8825;48.086;16.426;2023-05-16T05:12:43;15.60;68.30
17415;DHT22;8825;48.086;16.426;2023-05-16T05:15:10;15.70;68.40
17415;DHT22;8825;48.086;16.426;2023-05-16T05:17:38;15.70;68.30
17415;DHT22;8825;48.086;16.426;2023-05-16T05:20:07;15.80;68.40
17415;DHT22;8825;48.086;16.426;2023-05-16T05:22:35;15.90;68.40
17415;DHT22;8825;48.086;16.426;2023-05-16T05:25:04;15.90;68.60
17415;DHT22;8825;48.086;16.426;2023-05-16T05:27:32;15.90;68.50
17415;DHT22;8825;48.086;16.426;2023-05-16T05:29:59;16.00;68.50
17415;DHT22;8825;48.086;16.426;2023-05-16T05:32:27;16.00;68.40
17415;DHT22;8825;48.086;16.426;2023-05-16T05:34:54;16.00;68.40
17415;DHT22;8825;48.086;16.426;2023-05-16T05:37:22;16.10;68.60
17415;DHT22;8825;48.086;16.426;2023-05-16T05:39:49;16.10;68.70
17415;DHT22;8825;48.086;16.426;2023-05-16T05:42:17;16.10;69.40
17415;DHT22;8825;48.086;16.426;2023-05-16T05:44:44;16.20;68.70
17415;DHT22;8825;48.086;16.426;2023-05-16T05:47:12;16.10;68.60
17415;DHT22;8825;48.086;16.426;2023-05-16T05:49:39;16.20;68.80
17415;DHT22;8825;48.086;16.426;2023-05-16T05:52:07;16.20;68.80
17415;DHT22;8825;48.086;16.426;2023-05-16T05:54:35;16.30;68.90
17415;DHT22;8825;48.086;16.426;2023-05-16T05:57:02;16.30;68.90
17415;DHT22;8825;48.086;16.426;2023-05-16T05:59:30;16.30;68.80
17415;DHT22;8825;48.086;16.426;2023-05-16T06:01:57;16.40;68.80
17415;DHT22;8825;48.086;16.426;2023-05-16T06:04:25;16.40;68.80
17415;DHT22;8825;48.086;16.426;2023-05-16T06:06:52;16.40;68.90
17415;DHT22;8825;48.086;16.426;2023-05-16T06:09:21;16.40;68.90
17415;DHT22;8825;48.086;16.426;2023-05-16T06:11:49;16.40;69.00
17415;DHT22;8825;48.086;16.426;2023-05-16T06:14:16;16.40;69.20
17415;DHT22;8825;48.086;16.426;2023-05-16T06:16:44;16.40;69.30
17415;DHT22;8825;48.086;16.426;2023-05-16T06:19:11;16.40;69.60
17415;DHT22;8825;48.086;16.426;2023-05-16T06:21:41;16.50;69.60
17415;DHT22;8825;48.086;16.426;2023-05-16T06:24:09;16.40;69.50
17415;DHT22;8825;48.086;16.426;2023-05-16T06:26:37;16.40;69.40
17415;DHT22;8825;48.086;16.426;2023-05-16T06:29:05;16.40;69.10
17415;DHT22;8825;48.086;16.426;2023-05-16T06:31:33;16.50;69.20
17415;DHT22;8825;48.086;16.426;2023-05-16T06:34:00;16.50;68.80
17415;DHT22;8825;48.086;16.426;2023-05-16T06:36:28;16.50;68.60
17415;DHT22;8825;48.086;16.426;2023-05-16T06:38:55;16.50;68.10
17415;DHT22;8825;48.086;16.426;2023-05-16T06:41:23;16.60;68.00
17415;DHT22;8825;48.086;16.426;2023-05-16T06:43:52;16.60;67.40
17415;DHT22;8825;48.086;16.426;2023-05-16T06:46:19;16.60;67.10
17415;DHT22;8825;48.086;16.426;2023-05-16T06:48:46;16.70;66.80
17415;DHT22;8825;48.086;16.426;2023-05-16T06:51:14;16.70;66.30
17415;DHT22;8825;48.086;16.426;2023-05-16T06:53:42;16.70;66.80
17415;DHT22;8825;48.086;16.426;2023-05-16T06:56:09;16.80;67.70
17415;DHT22;8825;48.086;16.426;2023-05-16T06:58:36;16.70;68.10
17415;DHT22;8825;48.086;16.426;2023-05-16T07:01:04;16.70;69.00
17415;DHT22;8825;48.086;16.426;2023-05-16T07:03:31;16.70;68.40
17415;DHT22;8825;48.086;16.426;2023-05-16T07:05:59;16.70;68.60
17415;DHT22;8825;48.086;16.426;2023-05-16T07:08:26;16.80;68.80
17415;DHT22;8825;48.086;16.426;2023-05-16T07:10:54;16.80;68.80
17415;DHT22;8825;48.086;16.426;2023-05-16T07:13:21;16.80;68.80
17415;DHT22;8825;48.086;16.426;2023-05-16T07:15:49;16.80;68.80
17415;DHT22;8825;48.086;16.426;2023-05-16T07:18:16;16.90;68.80
17415;DHT22;8825;48.086;16.426;2023-05-16T07:20:44;16.90;68.90
17415;DHT22;8825;48.086;16.426;2023-05-16T07:23:12;16.90;68.80
17415;DHT22;8825;48.086;16.426;2023-05-16T07:25:39;16.90;68.60
17415;DHT22;8825;48.086;16.426;2023-05-16T07:28:07;16.90;68.40
17415;DHT22;8825;48.086;16.426;2023-05-16T07:30:34;16.90;68.20
17415;DHT22;8825;48.086;16.426;2023-05-16T07:33:02;16.80;68.10
17415;DHT22;8825;48.086;16.426;2023-05-16T07:35:29;16.80;68.00
17415;DHT22;8825;48.086;16.426;2023-05-16T07:37:57;16.80;68.20
17415;DHT22;8825;48.086;16.426;2023-05-16T07:40:24;16.80;69.10
17415;DHT22;8825;48.086;16.426;2023-05-16T07:42:54;16.80;68.50
17415;DHT22;8825;48.086;16.426;2023-05-16T07:45:21;16.80;68.80
17415;DHT22;8825;48.086;16.426;2023-05-16T07:47:49;16.70;69.30
17415;DHT22;8825;48.086;16.426;2023-05-16T07:50:16;16.80;68.90
17415;DHT22;8825;48.086;16.426;2023-05-16T07:52:44;16.80;69.00
17415;DHT22;8825;48.086;16.426;2023-05-16T07:55:12;16.80;69.10
17415;DHT22;8825;48.086;16.426;2023-05-16T07:57:40;16.80;69.30
17415;DHT22;8825;48.086;16.426;2023-05-16T08:00:09;16.80;69.70
17415;DHT22;8825;48.086;16.426;2023-05-16T08:02:37;16.90;70.00
17415;DHT22;8825;48.086;16.426;2023-05-16T08:05:06;16.90;70.20
17415;DHT22;8825;48.086;16.426;2023-05-16T08:07:33;16.90;70.30
17415;DHT22;8825;48.086;16.426;2023-05-16T08:10:01;16.80;70.50
17415;DHT22;8825;48.086;16.426;2023-05-16T08:12:29;16.80;70.70
17415;DHT22;8825;48.086;16.426;2023-05-16T08:14:56;16.90;70.90
17415;DHT22;8825;48.086;16.426;2023-05-16T08:17:24;16.80;71.10
17415;DHT22;8825;48.086;16.426;2023-05-16T08:19:51;16.80;71.40
17415;DHT22;8825;48.086;16.426;2023-05-16T08:22:19;16.80;71.60
17415;DHT22;8825;48.086;16.426;2023-05-16T08:24:47;16.80;72.00
17415;DHT22;8825;48.086;16.426;2023-05-16T08:27:14;16.80;72.40
17415;DHT22;8825;48.086;16.426;2023-05-16T08:29:42;16.80;72.60
17415;DHT22;8825;48.086;16.426;2023-05-16T08:32:09;16.80;72.60
17415;DHT22;8825;48.086;16.426;2023-05-16T08:34:37;16.70;72.90
17415;DHT22;8825;48.086;16.426;2023-05-16T08:37:05;16.80;73.30
17415;DHT22;8825;48.086;16.426;2023-05-16T08:39:32;16.80;73.60
17415;DHT22;8825;48.086;16.426;2023-05-16T08:42:00;16.80;73.70
17415;DHT22;8825;48.086;16.426;2023-05-16T08:44:28;16.80;73.90
17415;DHT22;8825;48.086;16.426;2023-05-16T08:46:56;16.80;74.10
17415;DHT22;8825;48.086;16.426;2023-05-16T08:49:26;16.80;74.20
17415;DHT22;8825;48.086;16.426;2023-05-16T08:51:56;16.80;74.10
17415;DHT22;8825;48.086;16.426;2023-05-16T08:54:26;16.70;74.10
17415;DHT22;8825;48.086;16.426;2023-05-16T08:56:53;16.70;74.20
17415;DHT22;8825;48.086;16.426;2023-05-16T08:59:22;16.70;74.40
17415;DHT22;8825;48.086;16.426;2023-05-16T09:01:50;16.60;75.20
17415;DHT22;8825;48.086;16.426;2023-05-16T09:04:17;16.60;74.70
17415;DHT22;8825;48.086;16.426;2023-05-16T09:06:45;16.60;74.90
17415;DHT22;8825;48.086;16.426;2023-05-16T09:09:13;16.50;74.70
17415;DHT22;8825;48.086;16.426;2023-05-16T09:11:41;16.50;74.70
17415;DHT22;8825;48.086;16.426;2023-05-16T09:14:09;16.40;75.50
17415;DHT22;8825;48.086;16.426;2023-05-16T09:16:36;16.40;75.00
17415;DHT22;8825;48.086;16.426;2023-05-16T09:19:04;16.40;75.50
17415;DHT22;8825;48.086;16.426;2023-05-16T09:21:33;16.30;75.40
17415;DHT22;8825;48.086;16.426;2023-05-16T09:24:05;16.30;75.50
17415;DHT22;8825;48.086;16.426;2023-05-16T09:26:35;16.30;75.60
17415;DHT22;8825;48.086;16.426;2023-05-16T09:29:13;16.30;75.80
17415;DHT22;8825;48.086;16.426;2023-05-16T09:31:40;16.30;75.80
17415;DHT22;8825;48.086;16.426;2023-05-16T09:34:09;16.30;75.90
17415;DHT22;8825;48.086;16.426;2023-05-16T09:36:39;16.30;76.00
17415;DHT22;8825;48.086;16.426;2023-05-16T09:39:07;16.30;76.00
17415;DHT22;8825;48.086;16.426;2023-05-16T09:41:35;16.30;76.20
17415;DHT22;8825;48.086;16.426;2023-05-16T09:44:05;16.30;76.20
17415;DHT22;8825;48.086;16.426;2023-05-16T09:46:36;16.30;76.20
17415;DHT22;8825;48.086;16.426;2023-05-16T09:49:04;16.30;76.20
17415;DHT22;8825;48.086;16.426;2023-05-16T09:51:32;16.30;76.30
17415;DHT22;8825;48.086;16.426;2023-05-16T09:53:59;16.30;76.30
17415;DHT22;8825;48.086;16.426;2023-05-16T09:56:27;16.30;76.40
17415;DHT22;8825;48.086;16.426;2023-05-16T09:58:56;16.30;76.30
17415;DHT22;8825;48.086;16.426;2023-05-16T10:01:23;16.30;76.40
17415;DHT22;8825;48.086;16.426;2023-05-16T10:03:51;16.30;76.60
17415;DHT22;8825;48.086;16.426;2023-05-16T10:06:18;16.30;76.60
17415;DHT22;8825;48.086;16.426;2023-05-16T10:08:47;16.30;76.60
17415;DHT22;8825;48.086;16.426;2023-05-16T10:11:16;16.30;76.70
17415;DHT22;8825;48.086;16.426;2023-05-16T10:13:45;16.40;76.80
17415;DHT22;8825;48.086;16.426;2023-05-16T10:16:15;16.40;76.90
17415;DHT22;8825;48.086;16.426;2023-05-16T10:18:43;16.30;76.90
17415;DHT22;8825;48.086;16.426;2023-05-16T10:21:13;16.30;76.80
17415;DHT22;8825;48.086;16.426;2023-05-16T10:23:43;16.30;76.80
17415;DHT22;8825;48.086;16.426;2023-05-16T10:26:11;16.30;77.60
17415;DHT22;8825;48.086;16.426;2023-05-16T10:28:40;16.30;76.70
17415;DHT22;8825;48.086;16.426;2023-05-16T10:31:09;16.30;76.80
17415;DHT22;8825;48.086;16.426;2023-05-16T10:33:38;16.30;76.70
17415;DHT22;8825;48.086;16.426;2023-05-16T10:36:08;16.30;76.70
17415;DHT22;8825;48.086;16.426;2023-05-16T10:38:37;16.30;76.70
17415;DHT22;8825;48.086;16.426;2023-05-16T10:41:06;16.30;76.70
17415;DHT22;8825;48.086;16.426;2023-05-16T10:43:34;16.30;76.70
17415;DHT22;8825;48.086;16.426;2023-05-16T10:46:03;16.30;76.80
17415;DHT22;8825;48.086;16.426;2023-05-16T10:48:34;16.30;76.90
17415;DHT22;8825;48.086;16.426;2023-05-16T10:51:02;16.30;77.70
17415;DHT22;8825;48.086;16.426;2023-05-16T10:53:32;16.40;77.00
17415;DHT22;8825;48.086;16.426;2023-05-16T11:01:23;16.40;77.00
17415;DHT22;8825;48.086;16.426;2023-05-16T11:06:31;16.40;77.10
17415;DHT22;8825;48.086;16.426;2023-05-16T11:14:26;16.30;77.30
17415;DHT22;8825;48.086;16.426;2023-05-16T11:17:03;16.30;77.40
17415;DHT22;8825;48.086;16.426;2023-05-16T11:19:38;16.20;78.20
17415;DHT22;8825;48.086;16.426;2023-05-16T11:22:22;16.20;77.50
17415;DHT22;8825;48.086;16.426;2023-05-16T11:25:01;16.20;77.50
17415;DHT22;8825;48.086;16.426;2023-05-16T11:27:31;16.20;77.50
17415;DHT22;8825;48.086;16.426;2023-05-16T11:30:22;16.20;77.20
17415;DHT22;8825;48.086;16.426;2023-05-16T11:32:32;16.20;77.60
17415;DHT22;8825;48.086;16.426;2023-05-16T11:34:59;16.20;77.60
17415;DHT22;8825;48.086;16.426;2023-05-16T11:37:29;16.20;77.50
17415;DHT22;8825;48.086;16.426;2023-05-16T11:40:03;16.20;77.50
17415;DHT22;8825;48.086;16.426;2023-05-16T11:42:37;16.20;77.50
17415;DHT22;8825;48.086;16.426;2023-05-16T11:45:11;16.30;77.60
17415;DHT22;8825;48.086;16.426;2023-05-16T11:47:43;16.30;77.60
17415;DHT22;8825;48.086;16.426;2023-05-16T11:50:18;16.20;77.90
17415;DHT22;8825;48.086;16.426;2023-05-16T11:52:51;16.20;77.60
17415;DHT22;8825;48.086;16.426;2023-05-16T11:55:21;16.20;77.60
17415;DHT22;8825;48.086;16.426;2023-05-16T11:57:52;16.30;77.80
17415;DHT22;8825;48.086;16.426;2023-05-16T12:00:22;16.30;77.70
17415;DHT22;8825;48.086;16.426;2023-05-16T12:02:59;16.30;77.80
17415;DHT22;8825;48.086;16.426;2023-05-16T12:05:23;16.30;77.80
17415;DHT22;8825;48.086;16.426;2023-05-16T12:07:52;16.30;77.90
17415;DHT22;8825;48.086;16.426;2023-05-16T12:10:20;16.40;78.70
17415;DHT22;8825;48.086;16.426;2023-05-16T12:12:49;16.40;77.90
17415;DHT22;8825;48.086;16.426;2023-05-16T12:15:19;16.40;78.30
17415;DHT22;8825;48.086;16.426;2023-05-16T12:17:47;16.40;77.90
17415;DHT22;8825;48.086;16.426;2023-05-16T12:20:16;16.50;78.00
17415;DHT22;8825;48.086;16.426;2023-05-16T12:22:44;16.50;77.80
17415;DHT22;8825;48.086;16.426;2023-05-16T12:25:30;16.50;77.80
17415;DHT22;8825;48.086;16.426;2023-05-16T12:28:00;16.50;77.80
17415;DHT22;8825;48.086;16.426;2023-05-16T12:30:29;16.50;77.70
17415;DHT22;8825;48.086;16.426;2023-05-16T12:32:58;16.50;78.00
17415;DHT22;8825;48.086;16.426;2023-05-16T12:35:31;16.50;77.70
17415;DHT22;8825;48.086;16.426;2023-05-16T12:38:02;16.50;77.70
17415;DHT22;8825;48.086;16.426;2023-05-16T12:40:29;16.40;77.70
17415;DHT22;8825;48.086;16.426;2023-05-16T12:42:56;16.40;77.80
17415;DHT22;8825;48.086;16.426;2023-05-16T12:45:26;16.40;78.00
17415;DHT22;8825;48.086;16.426;2023-05-16T12:47:54;16.40;78.00
17415;DHT22;8825;48.086;16.426;2023-05-16T12:50:21;16.40;78.30
17415;DHT22;8825;48.086;16.426;2023-05-16T12:52:50;16.50;78.20
17415;DHT22;8825;48.086;16.426;2023-05-16T12:55:20;16.50;78.20
17415;DHT22;8825;48.086;16.426;2023-05-16T12:57:48;16.50;78.20
17415;DHT22;8825;48.086;16.426;2023-05-16T13:00:18;16.50;78.20
17415;DHT22;8825;48.086;16.426;2023-05-16T13:02:47;16.60;78.30
17415;DHT22;8825;48.086;16.426;2023-05-16T13:05:15;16.60;78.20
17415;DHT22;8825;48.086;16.426;2023-05-16T13:07:43;16.60;78.30
17415;DHT22;8825;48.086;16.426;2023-05-16T13:10:11;16.60;78.40
17415;DHT22;8825;48.086;16.426;2023-05-16T13:12:40;16.70;78.40
17415;DHT22;8825;48.086;16.426;2023-05-16T13:15:09;16.80;78.20
17415;DHT22;8825;48.086;16.426;2023-05-16T13:17:42;16.80;78.00
17415;DHT22;8825;48.086;16.426;2023-05-16T13:20:13;16.80;77.80
17415;DHT22;8825;48.086;16.426;2023-05-16T13:22:42;16.70;77.90
17415;DHT22;8825;48.086;16.426;2023-05-16T13:25:11;16.70;77.90
17415;DHT22;8825;48.086;16.426;2023-05-16T13:27:38;16.70;77.80
17415;DHT22;8825;48.086;16.426;2023-05-16T13:30:06;16.70;77.80
17415;DHT22;8825;48.086;16.426;2023-05-16T13:32:34;16.70;77.80
17415;DHT22;8825;48.086;16.426;2023-05-16T13:35:02;16.60;77.80
17415;DHT22;8825;48.086;16.426;2023-05-16T13:37:29;16.70;78.40
17415;DHT22;8825;48.086;16.426;2023-05-16T13:39:57;16.70;77.80
17415;DHT22;8825;48.086;16.426;2023-05-16T13:42:25;16.70;77.80
17415;DHT22;8825;48.086;16.426;2023-05-16T13:44:52;16.70;77.80
17415;DHT22;8825;48.086;16.426;2023-05-16T13:47:20;16.70;77.70
17415;DHT22;8825;48.086;16.426;2023-05-16T13:49:47;16.70;77.70
17415;DHT22;8825;48.086;16.426;2023-05-16T13:52:15;16.70;77.70
17415;DHT22;8825;48.086;16.426;2023-05-16T13:54:43;16.70;77.70
17415;DHT22;8825;48.086;16.426;2023-05-16T13:57:10;16.70;77.70
17415;DHT22;8825;48.086;16.426;2023-05-16T13:59:38;16.70;77.40
17415;DHT22;8825;48.086;16.426;2023-05-16T14:02:05;16.60;77.30
17415;DHT22;8825;48.086;16.426;2023-05-16T14:04:33;16.60;77.10
17415;DHT22;8825;48.086;16.426;2023-05-16T14:07:00;16.50;76.80
17415;DHT22;8825;48.086;16.426;2023-05-16T14:09:28;16.50;76.80
17415;DHT22;8825;48.086;16.426;2023-05-16T14:11:56;16.50;76.90
17415;DHT22;8825;48.086;16.426;2023-05-16T14:14:24;16.40;77.60
17415;DHT22;8825;48.086;16.426;2023-05-16T14:16:51;16.40;76.90
17415;DHT22;8825;48.086;16.426;2023-05-16T14:19:19;16.40;77.10
17415;DHT22;8825;48.086;16.426;2023-05-16T14:21:47;16.40;77.20
17415;DHT22;8825;48.086;16.426;2023-05-16T14:24:14;16.40;77.20
17415;DHT22;8825;48.086;16.426;2023-05-16T14:26:42;16.50;77.30
17415;DHT22;8825;48.086;16.426;2023-05-16T14:29:09;16.40;77.30
17415;DHT22;8825;48.086;16.426;2023-05-16T14:31:38;16.50;77.40
17415;DHT22;8825;48.086;16.426;2023-05-16T14:34:06;16.50;77.40
17415;DHT22;8825;48.086;16.426;2023-05-16T14:36:34;16.50;77.40
17415;DHT22;8825;48.086;16.426;2023-05-16T14:39:02;16.50;77.60
17415;DHT22;8825;48.086;16.426;2023-05-16T14:41:30;16.60;77.60
17415;DHT22;8825;48.086;16.426;2023-05-16T14:43:57;16.50;77.40
17415;DHT22;8825;48.086;16.426;2023-05-16T14:46:25;16.50;77.40
17415;DHT22;8825;48.086;16.426;2023-05-16T14:48:52;16.50;77.40
17415;DHT22;8825;48.086;16.426;2023-05-16T14:51:20;16.50;77.40
17415;DHT22;8825;48.086;16.426;2023-05-16T14:53:47;16.50;77.40
17415;DHT22;8825;48.086;16.426;2023-05-16T14:56:15;16.50;77.40
17415;DHT22;8825;48.086;16.426;2023-05-16T14:58:42;16.50;77.30
17415;DHT22;8825;48.086;16.426;2023-05-16T15:01:10;16.50;77.30
17415;DHT22;8825;48.086;16.426;2023-05-16T15:03:37;16.50;77.40
17415;DHT22;8825;48.086;16.426;2023-05-16T15:06:06;16.50;77.30
17415;DHT22;8825;48.086;16.426;2023-05-16T15:08:34;16.40;77.40
17415;DHT22;8825;48.086;16.426;2023-05-16T15:11:03;16.50;77.40
17415;DHT22;8825;48.086;16.426;2023-05-16T15:13:30;16.50;77.40
17415;DHT22;8825;48.086;16.426;2023-05-16T15:15:58;16.50;77.50
17415;DHT22;8825;48.086;16.426;2023-05-16T15:18:26;16.50;77.50
17415;DHT22;8825;48.086;16.426;2023-05-16T15:20:53;16.50;77.40
17415;DHT22;8825;48.086;16.426;2023-05-16T15:23:21;16.50;77.50
17415;DHT22;8825;48.086;16.426;2023-05-16T15:25:48;16.50;77.40
17415;DHT22;8825;48.086;16.426;2023-05-16T15:28:17;16.50;77.30
17415;DHT22;8825;48.086;16.426;2023-05-16T15:30:45;16.50;77.20
17415;DHT22;8825;48.086;16.426;2023-05-16T15:33:12;16.50;77.20
17415;DHT22;8825;48.086;16.426;2023-05-16T15:35:40;16.40;77.10
17415;DHT22;8825;48.086;16.426;2023-05-16T15:38:08;16.40;77.10
17415;DHT22;8825;48.086;16.426;2023-05-16T15:40:35;16.40;77.00
17415;DHT22;8825;48.086;16.426;2023-05-16T15:43:03;16.40;77.10
17415;DHT22;8825;48.086;16.426;2023-05-16T15:45:31;16.40;77.00
17415;DHT22;8825;48.086;16.426;2023-05-16T15:47:59;16.40;77.00
17415;DHT22;8825;48.086;16.426;2023-05-16T15:50:28;16.40;77.00
17415;DHT22;8825;48.086;16.426;2023-05-16T15:52:56;16.40;77.10
17415;DHT22;8825;48.086;16.426;2023-05-16T15:55:23;16.40;77.00
17415;DHT22;8825;48.086;16.426;2023-05-16T15:57:51;16.30;76.90
17415;DHT22;8825;48.086;16.426;2023-05-16T16:00:20;16.30;76.90
17415;DHT22;8825;48.086;16.426;2023-05-16T16:02:48;16.30;76.90